createdAt,value
2023-04-23T00:02:02.296Z,16.77
2023-04-23T00:04:28.993Z,16.76
2023-04-23T00:06:55.666Z,16.76
2023-04-23T00:09:22.204Z,16.75
2023-04-23T00:11:48.766Z,16.75
2023-04-23T00:14:15.213Z,16.76
2023-04-23T00:16:41.796Z,16.76
2023-04-23T00:19:08.560Z,16.75
2023-04-23T00:21:35.070Z,16.75
2023-04-23T00:24:01.553Z,16.76
2023-04-23T00:26:28.214Z,16.76
2023-04-23T00:28:54.733Z,16.76
2023-04-23T00:31:21.318Z,16.76
2023-04-23T00:33:48.405Z,16.75
2023-04-23T00:36:14.827Z,16.75
2023-04-23T00:38:41.305Z,16.75
2023-04-23T00:41:08.209Z,16.76
2023-04-23T00:43:34.676Z,16.75
2023-04-23T00:46:01.149Z,16.74
2023-04-23T00:48:28.256Z,16.76
2023-04-23T00:50:54.727Z,16.77
2023-04-23T00:53:21.574Z,16.77
2023-04-23T00:55:48.016Z,16.75
2023-04-23T00:58:15.272Z,16.75
2023-04-23T01:00:41.730Z,16.74
2023-04-23T01:03:11.830Z,16.76
2023-04-23T01:05:38.494Z,16.76
2023-04-23T01:08:07.256Z,16.75
2023-04-23T01:10:34.039Z,16.74
2023-04-23T01:13:00.928Z,16.75
2023-04-23T01:15:27.470Z,16.75
2023-04-23T01:17:54.335Z,16.73
2023-04-23T01:20:20.766Z,16.74
2023-04-23T01:22:49.244Z,16.74
2023-04-23T01:25:16.073Z,16.74
2023-04-23T01:27:42.604Z,16.74
2023-04-23T01:30:09.388Z,16.75
2023-04-23T01:32:35.949Z,16.74
2023-04-23T01:35:02.784Z,16.74
2023-04-23T01:37:29.970Z,16.72
2023-04-23T01:39:56.747Z,16.73
2023-04-23T01:42:23.277Z,16.74
2023-04-23T01:44:49.931Z,16.74
2023-04-23T01:47:16.369Z,16.73
2023-04-23T01:49:43.056Z,16.73
2023-04-23T01:52:09.513Z,16.75
2023-04-23T01:54:36.161Z,16.76
2023-04-23T01:57:02.640Z,16.74
2023-04-23T01:59:29.073Z,16.74
2023-04-23T02:01:55.554Z,16.74
2023-04-23T02:04:22.735Z,16.73
2023-04-23T02:06:49.263Z,16.74
2023-04-23T02:09:15.792Z,16.74
2023-04-23T02:11:42.341Z,16.73
2023-04-23T02:14:08.724Z,16.74
2023-04-23T02:16:35.714Z,16.72
2023-04-23T02:19:02.250Z,16.73
2023-04-23T02:21:28.747Z,16.73
2023-04-23T02:23:55.756Z,16.73
2023-04-23T02:26:22.733Z,16.73
2023-04-23T02:28:49.266Z,16.72
2023-04-23T02:31:16.354Z,16.72
2023-04-23T02:33:42.943Z,16.74
2023-04-23T02:36:09.595Z,16.73
2023-04-23T02:38:36.524Z,16.73
2023-04-23T02:41:03.066Z,16.72
2023-04-23T02:43:29.611Z,16.71
2023-04-23T02:45:56.039Z,16.72
2023-04-23T02:48:22.681Z,16.73
2023-04-23T02:50:49.120Z,16.74
2023-04-23T02:53:15.622Z,16.72
2023-04-23T02:55:42.444Z,16.72
2023-04-23T02:58:09.017Z,16.72
2023-04-23T03:00:35.559Z,16.72
2023-04-23T03:03:03.290Z,16.72
2023-04-23T03:05:38.063Z,16.73
2023-04-23T03:08:04.708Z,16.72
2023-04-23T03:10:31.857Z,16.73
2023-04-23T03:12:59.424Z,16.73
2023-04-23T03:15:26.798Z,16.72
2023-04-23T03:17:54.119Z,16.72
2023-04-23T03:20:21.162Z,16.71
2023-04-23T03:22:48.892Z,16.72
2023-04-23T03:25:16.161Z,16.72
2023-04-23T03:27:42.967Z,16.72
2023-04-23T03:30:10.238Z,16.72
2023-04-23T03:32:37.994Z,16.72
2023-04-23T03:35:04.437Z,16.72
2023-04-23T03:37:31.008Z,16.72
2023-04-23T03:39:57.644Z,16.71
2023-04-23T03:42:24.501Z,16.70
2023-04-23T03:44:50.959Z,16.72
2023-04-23T03:47:17.632Z,16.70
2023-04-23T03:49:44.281Z,16.71
2023-04-23T03:52:10.644Z,16.71
2023-04-23T03:54:37.201Z,16.70
2023-04-23T03:57:03.690Z,16.70
2023-04-23T03:59:30.146Z,16.70
2023-04-23T04:01:56.591Z,16.70
2023-04-23T04:04:23.262Z,16.70
2023-04-23T04:06:50.090Z,16.69
2023-04-23T04:09:16.670Z,16.71
2023-04-23T04:11:43.069Z,16.71
2023-04-23T04:14:10.030Z,16.70
2023-04-23T04:16:36.776Z,16.71
2023-04-23T04:19:03.209Z,16.70
2023-04-23T04:21:29.659Z,16.70
2023-04-23T04:23:56.184Z,16.70
2023-04-23T04:26:22.895Z,16.70
2023-04-23T04:28:49.402Z,16.71
2023-04-23T04:31:15.994Z,16.71
2023-04-23T04:33:42.605Z,16.70
2023-04-23T04:36:09.420Z,16.70
2023-04-23T04:38:35.857Z,16.71
2023-04-23T04:41:02.211Z,16.70
2023-04-23T04:43:28.591Z,16.68
2023-04-23T04:45:54.962Z,16.70
2023-04-23T04:48:21.762Z,16.69
2023-04-23T04:50:48.157Z,16.69
2023-04-23T04:53:14.633Z,16.69
2023-04-23T04:55:41.380Z,16.69
2023-04-23T04:58:07.789Z,16.69
2023-04-23T05:00:34.143Z,16.68
2023-04-23T05:03:00.647Z,16.66
2023-04-23T05:05:27.395Z,16.68
2023-04-23T05:07:53.842Z,16.66
2023-04-23T05:10:20.273Z,16.68
2023-04-23T05:12:47.123Z,16.69
2023-04-23T05:15:13.784Z,16.66
2023-04-23T05:17:40.219Z,16.67
2023-04-23T05:20:06.677Z,16.67
2023-04-23T05:22:33.548Z,16.65
2023-04-23T05:24:59.916Z,16.68
2023-04-23T05:27:26.859Z,16.66
2023-04-23T05:29:53.318Z,16.66
2023-04-23T05:32:19.898Z,16.65
2023-04-23T05:34:46.645Z,16.67
2023-04-23T05:37:13.196Z,16.67
2023-04-23T05:39:39.665Z,16.68
2023-04-23T05:42:06.144Z,16.68
2023-04-23T05:44:32.608Z,16.68
2023-04-23T05:46:59.237Z,16.67
2023-04-23T05:49:25.966Z,16.66
2023-04-23T05:51:52.448Z,16.66
2023-04-23T05:54:18.897Z,16.68
2023-04-23T05:56:45.976Z,16.67
2023-04-23T05:59:12.775Z,16.68
2023-04-23T06:01:39.175Z,16.65
2023-04-23T06:04:06.063Z,16.67
2023-04-23T06:06:33.170Z,16.68
2023-04-23T06:08:59.622Z,16.68
2023-04-23T06:11:26.040Z,16.68
2023-04-23T06:13:52.534Z,16.67
2023-04-23T06:16:18.892Z,16.69
2023-04-23T06:18:45.366Z,16.69
2023-04-23T06:21:11.812Z,16.68
2023-04-23T06:23:38.334Z,16.69
2023-04-23T06:26:04.863Z,16.70
2023-04-23T06:28:31.372Z,16.69
2023-04-23T06:30:57.901Z,16.70
2023-04-23T06:33:24.336Z,16.71
2023-04-23T06:35:50.890Z,16.69
2023-04-23T06:38:17.588Z,16.68
2023-04-23T06:40:44.575Z,16.68
2023-04-23T06:43:11.005Z,16.69
2023-04-23T06:45:37.557Z,16.69
2023-04-23T06:48:03.996Z,16.70
2023-04-23T06:50:30.526Z,16.71
2023-04-23T06:52:57.266Z,16.70
2023-04-23T06:55:24.056Z,16.71
2023-04-23T06:57:50.552Z,16.69
2023-04-23T07:00:17.094Z,16.70
2023-04-23T07:02:43.796Z,16.70
2023-04-23T07:05:10.319Z,16.71
2023-04-23T07:07:37.215Z,16.70
2023-04-23T07:10:03.771Z,16.71
2023-04-23T07:12:30.203Z,16.70
2023-04-23T07:14:56.630Z,16.71
2023-04-23T07:17:23.199Z,16.69
2023-04-23T07:19:49.887Z,16.71
2023-04-23T07:22:16.774Z,16.72
2023-04-23T07:24:43.430Z,16.70
2023-04-23T07:27:10.088Z,16.71
2023-04-23T07:29:36.680Z,16.70
2023-04-23T07:32:03.086Z,16.70
2023-04-23T07:34:29.699Z,16.72
2023-04-23T07:36:56.095Z,16.71
2023-04-23T07:39:22.733Z,16.72
2023-04-23T07:41:49.669Z,16.70
2023-04-23T07:44:16.418Z,16.72
2023-04-23T07:46:42.943Z,16.71
2023-04-23T07:49:09.878Z,16.72
2023-04-23T07:51:36.318Z,16.72
2023-04-23T07:54:02.966Z,16.73
2023-04-23T07:56:29.383Z,16.73
2023-04-23T07:58:56.450Z,16.72
2023-04-23T08:01:22.902Z,16.74
2023-04-23T08:03:49.604Z,16.72
2023-04-23T08:06:16.251Z,16.74
2023-04-23T08:08:42.619Z,16.73
2023-04-23T08:11:09.260Z,16.68
2023-04-23T08:13:35.722Z,16.72
2023-04-23T08:16:02.353Z,16.74
2023-04-23T08:18:28.851Z,16.74
2023-04-23T08:20:55.590Z,16.73
2023-04-23T08:23:22.134Z,16.72
2023-04-23T08:25:48.601Z,16.72
2023-04-23T08:28:15.307Z,16.74
2023-04-23T08:30:41.959Z,16.72
2023-04-23T08:33:08.461Z,16.74
2023-04-23T08:35:35.254Z,16.71
2023-04-23T08:38:01.654Z,16.73
2023-04-23T08:40:28.201Z,16.75
2023-04-23T08:42:54.686Z,16.75
2023-04-23T08:45:21.327Z,16.74
2023-04-23T08:47:47.783Z,16.72
2023-04-23T08:50:14.309Z,16.74
2023-04-23T08:52:40.793Z,16.73
2023-04-23T08:55:07.434Z,16.73
2023-04-23T08:57:33.828Z,16.73
2023-04-23T09:00:00.797Z,16.73
2023-04-23T09:02:28.003Z,16.73
2023-04-23T09:04:56.173Z,16.72
2023-04-23T09:07:23.014Z,16.74
2023-04-23T09:09:49.551Z,16.73
2023-04-23T09:12:16.019Z,16.75
2023-04-23T09:14:42.766Z,16.74
2023-04-23T09:17:09.481Z,16.74
2023-04-23T09:19:35.968Z,16.73
2023-04-23T09:22:02.399Z,16.74
2023-04-23T09:24:29.148Z,16.72
2023-04-23T09:26:55.653Z,16.74
2023-04-23T09:29:22.216Z,16.74
2023-04-23T09:31:48.738Z,16.73
2023-04-23T09:34:15.656Z,16.73
2023-04-23T09:36:42.138Z,16.74
2023-04-23T09:39:08.640Z,16.73
2023-04-23T09:41:35.050Z,16.77
2023-04-23T09:44:01.526Z,16.71
2023-04-23T09:46:28.159Z,16.74
2023-04-23T09:48:54.663Z,16.73
2023-04-23T09:51:21.390Z,16.72
2023-04-23T09:53:47.882Z,16.73
2023-04-23T09:56:14.397Z,16.75
2023-04-23T09:58:41.008Z,16.76
2023-04-23T10:01:07.475Z,16.74
2023-04-23T10:03:34.399Z,16.74
2023-04-23T10:06:02.477Z,16.75
2023-04-23T10:08:29.316Z,16.74
2023-04-23T10:11:09.513Z,16.76
2023-04-23T10:13:40.604Z,16.74
2023-04-23T10:16:20.602Z,16.76
2023-04-23T10:18:48.593Z,16.75
2023-04-23T10:21:15.256Z,16.77
2023-04-23T10:23:41.933Z,16.75
2023-04-23T10:26:08.556Z,16.76
2023-04-23T10:28:35.093Z,16.77
2023-04-23T10:31:01.613Z,16.77
2023-04-23T10:33:31.803Z,16.77
2023-04-23T10:36:00.118Z,16.76
2023-04-23T10:38:26.484Z,16.77
2023-04-23T10:40:53.333Z,16.76
2023-04-23T10:43:19.878Z,16.77
2023-04-23T10:45:46.526Z,16.77
2023-04-23T10:48:13.278Z,16.77
2023-04-23T10:50:48.220Z,16.77
2023-04-23T10:53:26.998Z,16.78
2023-04-23T10:55:53.420Z,16.78
2023-04-23T10:58:19.849Z,16.77
2023-04-23T11:00:46.564Z,16.78
2023-04-23T11:03:13.571Z,16.78
2023-04-23T11:05:40.158Z,16.78
2023-04-23T11:10:36.430Z,16.78
2023-04-23T11:13:02.894Z,16.80
2023-04-23T11:15:29.350Z,16.78
2023-04-23T11:17:55.799Z,16.79
2023-04-23T11:20:22.533Z,16.79
2023-04-23T11:22:49.091Z,16.80
2023-04-23T11:25:15.703Z,16.79
2023-04-23T11:27:42.459Z,16.77
2023-04-23T11:30:09.680Z,16.81
2023-04-23T11:32:36.180Z,16.81
2023-04-23T11:35:02.786Z,16.79
2023-04-23T11:37:29.444Z,16.79
2023-04-23T11:39:55.964Z,16.80
2023-04-23T11:42:23.062Z,16.78
2023-04-23T11:44:49.564Z,16.80
2023-04-23T11:47:16.068Z,16.81
2023-04-23T11:49:42.969Z,16.82
2023-04-23T11:52:09.666Z,16.80
2023-04-23T11:54:36.132Z,16.81
2023-04-23T11:57:02.780Z,16.81
2023-04-23T11:59:29.207Z,16.82
2023-04-23T12:01:55.745Z,16.80
2023-04-23T12:04:22.544Z,16.81
2023-04-23T12:06:49.360Z,16.82
2023-04-23T12:09:15.914Z,16.81
2023-04-23T12:11:42.515Z,16.83
2023-04-23T12:14:09.493Z,16.80
2023-04-23T12:16:35.956Z,16.80
2023-04-23T12:19:02.482Z,16.83
2023-04-23T12:21:29.154Z,16.83
2023-04-23T12:23:55.847Z,16.82
2023-04-23T12:26:22.295Z,16.83
2023-04-23T12:28:48.741Z,16.83
2023-04-23T12:31:15.424Z,16.83
2023-04-23T12:33:41.898Z,16.83
2023-04-23T12:36:08.745Z,16.82
2023-04-23T12:38:35.386Z,16.84
2023-04-23T12:41:01.993Z,16.84
2023-04-23T12:43:28.493Z,16.84
2023-04-23T12:45:54.966Z,16.85
2023-04-23T12:48:21.508Z,16.85
2023-04-23T12:50:48.073Z,16.85
2023-04-23T12:53:14.847Z,16.85
2023-04-23T12:55:41.198Z,16.85
2023-04-23T12:58:07.776Z,16.84
2023-04-23T13:00:34.294Z,16.86
2023-04-23T13:03:00.838Z,16.84
2023-04-23T13:05:27.685Z,16.87
2023-04-23T13:07:54.224Z,16.85
2023-04-23T13:10:20.736Z,16.86
2023-04-23T13:12:47.694Z,16.87
2023-04-23T13:15:14.156Z,16.87
2023-04-23T13:17:40.662Z,16.87
2023-04-23T13:20:07.188Z,16.86
2023-04-23T13:22:33.695Z,16.87
2023-04-23T13:25:00.680Z,16.88
2023-04-23T13:27:27.356Z,16.87
2023-04-23T13:29:53.833Z,16.87
2023-04-23T13:32:22.063Z,16.87
2023-04-23T13:34:49.369Z,16.88
2023-04-23T13:37:15.794Z,16.88
2023-04-23T13:39:42.348Z,16.87
2023-04-23T13:42:10.186Z,16.88
2023-04-23T13:44:36.886Z,16.87
2023-04-23T13:47:03.682Z,16.89
2023-04-23T13:49:30.687Z,16.88
2023-04-23T13:51:57.129Z,16.88
2023-04-23T13:54:23.609Z,16.88
2023-04-23T13:56:50.142Z,16.88
2023-04-23T13:59:19.847Z,16.90
2023-04-23T14:01:47.656Z,16.89
2023-04-23T14:04:14.242Z,16.90
2023-04-23T14:06:40.884Z,16.89
2023-04-23T14:09:07.386Z,16.90
2023-04-23T14:11:34.060Z,16.90
2023-04-23T14:14:00.668Z,16.91
2023-04-23T14:16:27.261Z,16.91
2023-04-23T14:18:53.816Z,16.91
2023-04-23T14:21:20.275Z,16.90
2023-04-23T14:23:46.820Z,16.90
2023-04-23T14:26:13.397Z,16.90
2023-04-23T14:28:39.797Z,16.90
2023-04-23T14:31:06.561Z,16.91
2023-04-23T14:33:33.275Z,16.92
2023-04-23T14:35:59.879Z,16.91
2023-04-23T14:38:26.410Z,16.93
2023-04-23T14:40:52.977Z,16.82
2023-04-23T14:43:19.717Z,16.78
2023-04-23T14:45:46.293Z,16.75
2023-04-23T14:48:12.758Z,16.78
2023-04-23T14:50:39.540Z,16.83
2023-04-23T14:53:05.996Z,16.87
2023-04-23T14:55:32.619Z,16.88
2023-04-23T14:57:59.135Z,16.89
2023-04-23T15:00:25.988Z,16.91
2023-04-23T15:02:52.588Z,16.92
2023-04-23T15:05:19.071Z,16.95
2023-04-23T15:07:45.713Z,16.95
2023-04-23T15:10:12.472Z,16.96
2023-04-23T15:12:39.200Z,16.96
2023-04-23T15:15:05.802Z,16.97
2023-04-23T15:17:32.872Z,16.97
2023-04-23T15:19:59.612Z,16.97
2023-04-23T15:22:26.052Z,16.98
2023-04-23T15:24:52.566Z,16.99
2023-04-23T15:27:19.021Z,16.99
2023-04-23T15:29:45.595Z,16.97
2023-04-23T15:32:12.188Z,16.98
2023-04-23T15:34:38.776Z,16.98
2023-04-23T15:37:05.252Z,16.99
2023-04-23T15:39:31.690Z,16.99
2023-04-23T15:41:58.163Z,16.98
2023-04-23T15:44:24.863Z,17.00
2023-04-23T15:46:51.333Z,16.99
2023-04-23T15:49:18.059Z,17.00
2023-04-23T15:51:44.884Z,17.00
2023-04-23T15:54:11.659Z,17.02
2023-04-23T15:56:38.411Z,17.01
2023-04-23T15:59:04.982Z,17.01
2023-04-23T16:01:31.526Z,17.02
2023-04-23T16:06:27.655Z,17.02
2023-04-23T16:08:54.332Z,17.02
2023-04-23T16:11:20.779Z,17.05
2023-04-23T16:13:47.509Z,17.04
2023-04-23T16:16:13.955Z,17.04
2023-04-23T16:18:40.548Z,17.04
2023-04-23T16:21:06.946Z,17.06
2023-04-23T16:23:33.577Z,17.06
2023-04-23T16:26:00.143Z,17.06
2023-04-23T16:28:27.210Z,17.06
2023-04-23T16:30:53.829Z,17.07
2023-04-23T16:33:20.259Z,17.07
2023-04-23T16:35:47.004Z,17.08
2023-04-23T16:38:13.696Z,17.08
2023-04-23T16:40:40.341Z,17.08
2023-04-23T16:43:07.175Z,17.08
2023-04-23T16:45:33.616Z,17.09
2023-04-23T16:48:00.175Z,17.10
2023-04-23T16:50:27.521Z,17.10
2023-04-23T16:52:54.551Z,17.09
2023-04-23T16:55:21.136Z,17.09
2023-04-23T16:57:47.879Z,17.09
2023-04-23T17:00:14.542Z,17.10
2023-04-23T17:02:41.205Z,17.10
2023-04-23T17:05:07.971Z,17.10
2023-04-23T17:07:34.969Z,17.10
2023-04-23T17:10:01.460Z,17.11
2023-04-23T17:12:28.278Z,17.10
2023-04-23T17:14:54.910Z,17.10
2023-04-23T17:17:21.553Z,17.10
2023-04-23T17:19:48.130Z,17.11
2023-04-23T17:22:14.707Z,17.11
2023-04-23T17:24:41.575Z,17.10
2023-04-23T17:27:08.661Z,17.10
2023-04-23T17:29:35.592Z,17.11
2023-04-23T17:32:02.378Z,17.12
2023-04-23T17:34:29.104Z,17.11
2023-04-23T17:36:55.606Z,17.11
2023-04-23T17:39:22.049Z,17.11
2023-04-23T17:41:48.854Z,17.12
2023-04-23T17:44:15.304Z,17.12
2023-04-23T17:46:42.049Z,17.12
2023-04-23T17:49:08.865Z,17.12
2023-04-23T17:51:35.431Z,17.13
2023-04-23T17:54:02.567Z,17.13
2023-04-23T17:56:29.119Z,17.14
2023-04-23T17:58:56.016Z,17.14
2023-04-23T18:01:22.545Z,17.14
2023-04-23T18:03:49.309Z,17.14
2023-04-23T18:06:16.103Z,17.14
2023-04-23T18:08:43.003Z,17.14
2023-04-23T18:11:09.537Z,17.14
2023-04-23T18:13:36.195Z,17.15
2023-04-23T18:16:02.696Z,17.15
2023-04-23T18:18:29.553Z,17.14
2023-04-23T18:20:56.336Z,17.15
2023-04-23T18:23:22.908Z,17.15
2023-04-23T18:26:00.878Z,17.15
2023-04-23T18:28:28.036Z,17.16
2023-04-23T18:30:55.526Z,17.16
2023-04-23T18:33:22.066Z,17.14
2023-04-23T18:35:48.552Z,17.14
2023-04-23T18:38:15.229Z,17.14
2023-04-23T18:40:41.961Z,17.15
2023-04-23T18:43:08.715Z,17.15
2023-04-23T18:45:35.383Z,17.13
2023-04-23T18:48:02.431Z,17.14
2023-04-23T18:50:29.792Z,17.14
2023-04-23T18:52:56.771Z,17.15
2023-04-23T18:55:23.858Z,17.14
2023-04-23T18:57:50.323Z,17.14
2023-04-23T19:00:17.175Z,17.13
2023-04-23T19:02:43.660Z,17.13
2023-04-23T19:05:11.357Z,17.12
2023-04-23T19:07:38.034Z,17.11
2023-04-23T19:10:04.841Z,17.12
2023-04-23T19:12:31.893Z,17.12
2023-04-23T19:14:58.646Z,17.12
2023-04-23T19:17:25.572Z,17.10
2023-04-23T19:19:52.188Z,17.12
2023-04-23T19:22:18.839Z,17.12
2023-04-23T19:24:45.567Z,17.10
2023-04-23T19:27:12.044Z,17.11
2023-04-23T19:29:38.889Z,17.11
2023-04-23T19:32:05.570Z,17.10
2023-04-23T19:34:32.440Z,17.11
2023-04-23T19:36:59.022Z,17.09
2023-04-23T19:39:25.509Z,17.09
2023-04-23T19:41:52.191Z,17.09
2023-04-23T19:44:19.044Z,17.10
2023-04-23T19:46:46.132Z,17.09
2023-04-23T19:49:12.791Z,17.08
2023-04-23T19:51:39.498Z,17.08
2023-04-23T19:54:06.181Z,17.09
2023-04-23T19:56:33.115Z,17.07
2023-04-23T19:58:59.989Z,17.09
2023-04-23T20:01:26.783Z,17.08
2023-04-23T20:03:53.339Z,17.06
2023-04-23T20:06:20.283Z,17.07
2023-04-23T20:08:46.984Z,17.07
2023-04-23T20:11:13.564Z,17.05
2023-04-23T20:13:40.103Z,17.07
2023-04-23T20:16:07.225Z,17.06
2023-04-23T20:18:33.866Z,17.06
2023-04-23T20:21:00.708Z,17.06
2023-04-23T20:23:27.476Z,17.05
2023-04-23T20:25:54.473Z,17.06
2023-04-23T20:28:21.168Z,17.06
2023-04-23T20:30:48.128Z,17.05
2023-04-23T20:33:15.266Z,17.05
2023-04-23T20:35:41.773Z,17.05
2023-04-23T20:38:08.672Z,17.04
2023-04-23T20:40:35.076Z,17.04
2023-04-23T20:43:01.936Z,17.04
2023-04-23T20:45:28.710Z,17.05
2023-04-23T20:47:55.403Z,17.05
2023-04-23T20:50:22.135Z,17.05
2023-04-23T20:52:49.270Z,17.03
2023-04-23T20:55:15.903Z,17.02
2023-04-23T20:57:43.072Z,17.04
2023-04-23T21:00:09.666Z,17.04
2023-04-23T21:02:36.831Z,17.04
2023-04-23T21:05:03.993Z,17.02
2023-04-23T21:07:30.586Z,17.04
2023-04-23T21:09:57.040Z,17.03
2023-04-23T21:12:23.898Z,17.03
2023-04-23T21:14:50.533Z,17.03
2023-04-23T21:17:17.601Z,17.02
2023-04-23T21:19:44.357Z,17.02
2023-04-23T21:22:11.004Z,17.02
2023-04-23T21:24:37.543Z,17.03
2023-04-23T21:27:04.091Z,17.02
2023-04-23T21:29:30.936Z,17.02
2023-04-23T21:31:57.369Z,17.00
2023-04-23T21:34:23.930Z,17.03
2023-04-23T21:36:50.634Z,17.02
2023-04-23T21:39:17.539Z,17.02
2023-04-23T21:41:43.964Z,17.02
2023-04-23T21:44:10.914Z,17.00
2023-04-23T21:46:37.435Z,17.01
2023-04-23T21:49:03.926Z,17.00
2023-04-23T21:51:30.867Z,17.01
2023-04-23T21:53:57.506Z,17.00
2023-04-23T21:56:23.969Z,17.02
2023-04-23T21:58:50.491Z,17.02
2023-04-23T22:01:17.084Z,17.02
2023-04-23T22:03:43.762Z,17.00
2023-04-23T22:06:10.465Z,17.00
2023-04-23T22:08:37.343Z,17.02
2023-04-23T22:11:04.374Z,17.00
2023-04-23T22:13:30.935Z,16.99
2023-04-23T22:15:58.080Z,17.01
2023-04-23T22:18:25.066Z,17.00
2023-04-23T22:20:51.556Z,17.00
2023-04-23T22:23:18.627Z,17.01
2023-04-23T22:25:45.470Z,17.01
2023-04-23T22:28:11.975Z,17.03
2023-04-23T22:30:38.547Z,17.01
2023-04-23T22:33:05.463Z,17.00
2023-04-23T22:35:32.737Z,16.99
2023-04-23T22:37:59.462Z,17.01
2023-04-23T22:40:26.140Z,17.00
2023-04-23T22:42:52.793Z,16.99
2023-04-23T22:45:20.767Z,17.00
2023-04-23T22:47:47.896Z,16.99
2023-04-23T22:50:14.400Z,17.01
2023-04-23T22:52:41.069Z,17.00
2023-04-23T22:55:07.558Z,17.01
2023-04-23T22:57:34.140Z,17.01
2023-04-23T23:00:00.718Z,17.01
2023-04-23T23:02:28.079Z,17.00
2023-04-23T23:04:54.616Z,17.00
2023-04-23T23:07:21.258Z,17.01
2023-04-23T23:09:47.677Z,17.00
2023-04-23T23:12:14.601Z,17.00
2023-04-23T23:14:41.329Z,17.00
2023-04-23T23:17:07.821Z,16.98
2023-04-23T23:19:34.659Z,16.98
2023-04-23T23:22:01.432Z,16.99
2023-04-23T23:24:28.359Z,17.00
2023-04-23T23:26:54.787Z,17.01
2023-04-23T23:29:21.260Z,17.00
2023-04-23T23:31:47.995Z,16.99
2023-04-23T23:34:14.629Z,16.99
2023-04-23T23:36:41.054Z,17.00
2023-04-23T23:39:07.762Z,16.99
2023-04-23T23:41:34.510Z,17.00
2023-04-23T23:44:01.014Z,17.01
2023-04-23T23:46:27.508Z,17.01
2023-04-23T23:48:54.114Z,16.98
2023-04-23T23:51:20.569Z,16.99
2023-04-23T23:53:47.050Z,16.99
2023-04-23T23:56:13.447Z,16.99
2023-04-23T23:58:40.150Z,16.99
